createdAt,value
2022-12-03T00:01:35.723Z,3.30
2022-12-03T00:04:03.834Z,3.30
2022-12-03T00:06:34.874Z,3.30
2022-12-03T00:09:03.393Z,3.30
2022-12-03T00:11:31.386Z,3.20
2022-12-03T00:13:59.300Z,3.20
2022-12-03T00:16:27.303Z,3.30
2022-12-03T00:18:58.139Z,3.30
2022-12-03T00:21:27.295Z,3.30
2022-12-03T00:23:56.651Z,3.30
2022-12-03T00:26:24.602Z,3.30
2022-12-03T00:28:52.598Z,3.30
2022-12-03T00:31:23.351Z,3.30
2022-12-03T00:33:51.479Z,3.30
2022-12-03T00:36:19.688Z,3.30
2022-12-03T00:38:47.724Z,3.30
2022-12-03T00:41:17.166Z,3.30
2022-12-03T00:43:47.882Z,3.30
2022-12-03T00:46:21.154Z,3.30
2022-12-03T00:48:49.632Z,3.30
2022-12-03T00:51:17.624Z,3.30
2022-12-03T00:53:45.664Z,3.30
2022-12-03T00:56:28.122Z,3.30
2022-12-03T00:58:56.130Z,3.30
2022-12-03T01:01:26.317Z,3.30
2022-12-03T01:03:57.994Z,3.30
2022-12-03T01:06:25.970Z,3.30
2022-12-03T01:08:53.979Z,3.30
2022-12-03T01:11:39.663Z,3.30
2022-12-03T01:14:08.497Z,3.30
2022-12-03T01:16:41.791Z,3.30
2022-12-03T01:19:10.445Z,3.30
2022-12-03T01:21:38.616Z,3.30
2022-12-03T01:24:06.957Z,3.30
2022-12-03T01:26:36.299Z,3.30
2022-12-03T01:29:04.634Z,3.20
2022-12-03T01:31:50.168Z,3.20
2022-12-03T01:34:18.317Z,3.20
2022-12-03T01:36:46.370Z,3.20
2022-12-03T01:39:14.389Z,3.20
2022-12-03T01:41:43.781Z,3.20
2022-12-03T01:44:16.436Z,3.20
2022-12-03T01:46:44.845Z,3.20
2022-12-03T01:49:15.778Z,3.20
2022-12-03T01:51:43.840Z,3.20
2022-12-03T01:54:16.842Z,3.20
2022-12-03T01:56:46.970Z,3.20
2022-12-03T01:59:17.841Z,3.20
2022-12-03T02:01:45.984Z,3.20
2022-12-03T02:04:15.216Z,3.10
2022-12-03T02:06:43.743Z,3.10
2022-12-03T02:09:12.141Z,3.10
2022-12-03T02:11:41.318Z,3.10
2022-12-03T02:14:12.519Z,3.10
2022-12-03T02:16:42.235Z,3.00
2022-12-03T02:19:16.349Z,3.00
2022-12-03T02:21:47.483Z,3.00
2022-12-03T02:24:18.830Z,3.00
2022-12-03T02:26:48.159Z,3.00
2022-12-03T02:29:16.316Z,3.00
2022-12-03T02:31:44.475Z,3.00
2022-12-03T02:34:12.723Z,3.00
2022-12-03T02:36:40.818Z,3.00
2022-12-03T02:39:08.865Z,3.00
2022-12-03T02:41:54.314Z,3.00
2022-12-03T02:44:23.734Z,3.00
2022-12-03T02:46:51.723Z,3.00
2022-12-03T02:49:19.725Z,3.00
2022-12-03T02:51:47.751Z,3.00
2022-12-03T02:54:15.722Z,3.00
2022-12-03T02:56:43.691Z,3.10
2022-12-03T02:59:11.906Z,3.00
2022-12-03T03:01:41.389Z,3.00
2022-12-03T03:04:09.439Z,3.00
2022-12-03T03:06:37.387Z,3.00
2022-12-03T03:09:05.470Z,3.00
2022-12-03T03:11:33.700Z,3.00
2022-12-03T03:14:02.437Z,3.00
2022-12-03T03:16:30.685Z,3.00
2022-12-03T03:19:01.383Z,3.00
2022-12-03T03:21:32.157Z,3.00
2022-12-03T03:24:00.340Z,3.00
2022-12-03T03:26:28.366Z,2.90
2022-12-03T03:28:57.546Z,2.90
2022-12-03T03:31:25.660Z,2.90
2022-12-03T03:33:53.665Z,2.90
2022-12-03T03:36:23.501Z,2.90
2022-12-03T03:38:51.595Z,2.90
2022-12-03T03:41:20.838Z,2.80
2022-12-03T03:43:49.646Z,2.80
2022-12-03T03:46:18.638Z,2.80
2022-12-03T03:48:48.308Z,2.80
2022-12-03T03:51:17.551Z,2.80
2022-12-03T03:53:48.897Z,2.70
2022-12-03T03:56:17.390Z,2.70
2022-12-03T03:58:45.380Z,2.70
2022-12-03T04:01:17.177Z,2.70
2022-12-03T04:03:45.319Z,2.70
2022-12-03T04:06:13.662Z,2.60
2022-12-03T04:08:41.638Z,2.60
2022-12-03T04:11:28.706Z,2.60
2022-12-03T04:13:56.798Z,2.60
2022-12-03T04:16:24.857Z,2.50
2022-12-03T04:18:55.189Z,2.50
2022-12-03T04:21:43.285Z,2.50
2022-12-03T04:24:12.073Z,2.50
2022-12-03T04:26:58.969Z,2.50
2022-12-03T04:29:26.959Z,2.40
2022-12-03T04:32:12.601Z,2.50
2022-12-03T04:34:59.503Z,2.40
2022-12-03T04:37:27.784Z,2.40
2022-12-03T04:39:55.811Z,2.40
2022-12-03T04:42:25.231Z,2.40
2022-12-03T04:44:55.310Z,2.40
2022-12-03T04:47:28.310Z,2.00
2022-12-03T04:49:56.260Z,2.30
2022-12-03T04:52:24.195Z,2.30
2022-12-03T04:55:01.262Z,2.30
2022-12-03T04:57:31.613Z,2.30
2022-12-03T04:59:59.555Z,2.30
2022-12-03T05:02:27.609Z,2.30
2022-12-03T05:04:55.762Z,2.20
2022-12-03T05:07:24.119Z,2.20
2022-12-03T05:09:52.162Z,2.20
2022-12-03T05:12:20.127Z,2.20
2022-12-03T05:14:52.517Z,2.20
2022-12-03T05:17:20.671Z,2.20
2022-12-03T05:20:06.360Z,2.20
2022-12-03T05:22:34.319Z,2.10
2022-12-03T05:25:05.578Z,2.10
2022-12-03T05:27:34.739Z,2.10
2022-12-03T05:30:04.174Z,2.10
2022-12-03T05:32:32.196Z,2.00
2022-12-03T05:35:02.458Z,2.10
2022-12-03T05:37:30.358Z,2.00
2022-12-03T05:40:00.247Z,2.00
2022-12-03T05:42:45.633Z,2.00
2022-12-03T05:45:15.121Z,2.00
2022-12-03T05:47:43.174Z,2.00
2022-12-03T05:50:11.432Z,2.00
2022-12-03T05:52:41.114Z,2.00
2022-12-03T05:55:09.816Z,2.00
2022-12-03T05:57:40.822Z,1.90
2022-12-03T06:00:10.060Z,2.00
2022-12-03T06:02:39.462Z,1.90
2022-12-03T06:05:08.135Z,1.90
2022-12-03T06:07:40.657Z,1.90
2022-12-03T06:10:10.275Z,1.90
2022-12-03T06:12:38.195Z,1.90
2022-12-03T06:15:07.222Z,1.90
2022-12-03T06:17:35.216Z,1.80
2022-12-03T06:20:05.741Z,1.80
2022-12-03T06:22:36.586Z,1.80
2022-12-03T06:25:07.385Z,1.80
2022-12-03T06:27:38.067Z,1.70
2022-12-03T06:30:07.906Z,1.70
2022-12-03T06:32:35.953Z,1.70
2022-12-03T06:35:05.571Z,1.80
2022-12-03T06:37:33.532Z,1.70
2022-12-03T06:40:01.481Z,1.70
2022-12-03T06:42:29.576Z,1.70
2022-12-03T06:44:57.724Z,1.70
2022-12-03T06:47:25.763Z,1.70
2022-12-03T06:49:55.141Z,1.70
2022-12-03T06:52:24.506Z,1.70
2022-12-03T06:54:52.882Z,1.70
2022-12-03T06:57:21.230Z,1.60
2022-12-03T06:59:50.520Z,1.60
2022-12-03T07:02:21.245Z,1.60
2022-12-03T07:04:49.228Z,1.60
2022-12-03T07:07:17.165Z,1.60
2022-12-03T07:09:46.597Z,1.60
2022-12-03T07:12:14.541Z,1.60
2022-12-03T07:14:42.538Z,1.60
2022-12-03T07:17:10.554Z,1.50
2022-12-03T07:19:38.579Z,1.60
2022-12-03T07:22:06.807Z,1.70
2022-12-03T07:24:35.893Z,1.50
2022-12-03T07:27:05.253Z,1.50
2022-12-03T07:29:33.188Z,1.50
2022-12-03T07:32:01.245Z,1.50
2022-12-03T07:34:32.271Z,1.50
2022-12-03T07:37:02.676Z,1.50
2022-12-03T07:39:33.331Z,1.50
2022-12-03T07:42:09.205Z,1.50
2022-12-03T07:44:44.997Z,1.40
2022-12-03T07:47:13.076Z,1.40
2022-12-03T07:49:43.232Z,1.40
2022-12-03T07:52:13.819Z,1.40
2022-12-03T07:54:45.106Z,1.40
2022-12-03T07:57:14.525Z,1.40
2022-12-03T07:59:42.674Z,1.30
2022-12-03T08:02:10.708Z,1.70
2022-12-03T08:04:38.709Z,1.30
2022-12-03T08:07:06.800Z,1.30
2022-12-03T08:09:34.792Z,1.30
2022-12-03T08:12:04.105Z,1.20
2022-12-03T08:14:33.449Z,1.20
2022-12-03T08:17:02.014Z,1.30
2022-12-03T08:19:29.945Z,1.20
2022-12-03T08:22:01.232Z,1.20
2022-12-03T08:24:32.241Z,1.20
2022-12-03T08:27:00.638Z,1.20
2022-12-03T08:29:28.623Z,1.20
2022-12-03T08:31:59.573Z,1.20
2022-12-03T08:34:28.166Z,1.20
2022-12-03T08:36:58.917Z,1.20
2022-12-03T08:39:31.002Z,1.20
2022-12-03T08:42:29.828Z,1.20
2022-12-03T08:45:18.222Z,1.20
2022-12-03T08:47:47.633Z,1.30
2022-12-03T08:50:26.633Z,1.30
2022-12-03T08:53:00.030Z,1.30
2022-12-03T08:55:35.422Z,1.30
2022-12-03T08:58:14.039Z,1.30
2022-12-03T09:00:42.792Z,1.30
2022-12-03T09:03:15.750Z,1.30
2022-12-03T09:05:46.560Z,1.30
2022-12-03T09:08:14.691Z,1.30
2022-12-03T09:10:47.279Z,1.30
2022-12-03T09:13:16.390Z,1.40
2022-12-03T09:15:44.435Z,1.30
2022-12-03T09:18:14.554Z,1.40
2022-12-03T09:20:48.729Z,1.40
2022-12-03T09:23:16.830Z,1.40
2022-12-03T09:25:44.811Z,1.40
2022-12-03T09:28:12.789Z,1.50
2022-12-03T09:30:40.909Z,1.50
2022-12-03T09:33:09.934Z,1.50
2022-12-03T09:35:39.291Z,1.50
2022-12-03T09:38:07.749Z,1.50
2022-12-03T09:40:35.935Z,1.50
2022-12-03T09:43:04.000Z,1.50
2022-12-03T09:45:47.332Z,1.50
2022-12-03T09:48:16.516Z,1.60
2022-12-03T09:50:45.970Z,1.60
2022-12-03T09:53:15.540Z,1.70
2022-12-03T09:55:45.032Z,1.70
2022-12-03T09:58:18.876Z,1.70
2022-12-03T10:00:49.746Z,1.70
2022-12-03T10:03:30.163Z,1.70
2022-12-03T10:05:59.572Z,1.70
2022-12-03T10:08:32.125Z,1.70
2022-12-03T10:11:00.488Z,1.70
2022-12-03T10:13:29.695Z,1.80
2022-12-03T10:16:00.268Z,1.80
2022-12-03T10:18:34.465Z,1.80
2022-12-03T10:21:11.924Z,1.90
2022-12-03T10:23:49.506Z,1.80
2022-12-03T10:26:20.253Z,1.80
2022-12-03T10:28:49.041Z,1.80
2022-12-03T10:31:17.276Z,1.80
2022-12-03T10:33:48.705Z,1.90
2022-12-03T10:36:19.489Z,1.90
2022-12-03T10:38:47.553Z,1.90
2022-12-03T10:41:23.460Z,1.90
2022-12-03T10:43:51.793Z,1.90
2022-12-03T10:46:20.720Z,2.30
2022-12-03T10:49:08.708Z,1.80
2022-12-03T10:51:38.214Z,1.80
2022-12-03T10:54:12.899Z,1.80
2022-12-03T10:56:40.968Z,1.70
2022-12-03T10:59:13.505Z,1.80
2022-12-03T11:01:41.568Z,2.10
2022-12-03T11:04:12.718Z,1.80
2022-12-03T11:06:42.194Z,1.80
2022-12-03T11:09:15.107Z,1.90
2022-12-03T11:11:43.111Z,1.90
2022-12-03T11:14:11.581Z,1.90
2022-12-03T11:17:09.973Z,1.90
2022-12-03T11:19:45.758Z,2.00
2022-12-03T11:22:29.094Z,2.00
2022-12-03T11:25:15.601Z,2.40
2022-12-03T11:27:45.045Z,2.10
2022-12-03T11:30:13.100Z,2.10
2022-12-03T11:33:04.833Z,2.20
2022-12-03T11:35:37.399Z,2.10
2022-12-03T11:38:24.248Z,2.20
2022-12-03T11:41:08.207Z,2.30
2022-12-03T11:43:55.989Z,2.30
2022-12-03T11:46:26.625Z,2.40
2022-12-03T11:48:55.479Z,2.40
2022-12-03T11:51:25.010Z,2.40
2022-12-03T11:53:54.192Z,2.40
2022-12-03T11:56:24.252Z,2.40
2022-12-03T11:58:58.905Z,2.40
2022-12-03T12:01:38.569Z,2.40
2022-12-03T12:04:07.327Z,2.40
2022-12-03T12:06:42.419Z,2.40
2022-12-03T12:09:10.887Z,2.30
2022-12-03T12:11:40.414Z,2.30
2022-12-03T12:14:08.899Z,2.40
2022-12-03T12:16:42.917Z,2.40
2022-12-03T12:19:29.843Z,2.40
2022-12-03T12:22:12.766Z,2.40
2022-12-03T12:24:47.145Z,2.40
2022-12-03T12:27:15.774Z,2.40
2022-12-03T12:29:45.772Z,2.40
2022-12-03T12:32:16.561Z,2.40
2022-12-03T12:34:46.709Z,2.30
2022-12-03T12:37:15.364Z,2.30
2022-12-03T12:39:43.485Z,2.30
2022-12-03T12:42:29.338Z,2.30
2022-12-03T12:44:59.625Z,2.30
2022-12-03T12:47:31.073Z,2.30
2022-12-03T12:50:09.451Z,2.20
2022-12-03T12:52:38.645Z,2.30
2022-12-03T12:55:08.136Z,2.20
2022-12-03T12:57:36.197Z,2.20
2022-12-03T13:00:08.202Z,2.20
2022-12-03T13:02:45.812Z,2.20
2022-12-03T13:05:14.551Z,2.20
2022-12-03T13:07:44.228Z,2.20
2022-12-03T13:10:27.139Z,2.20
2022-12-03T13:12:55.403Z,2.20
2022-12-03T13:15:36.793Z,2.20
2022-12-03T13:18:17.180Z,2.20
2022-12-03T13:20:45.204Z,2.20
2022-12-03T13:23:23.886Z,2.20
2022-12-03T13:26:07.424Z,2.20
2022-12-03T13:28:43.067Z,2.20
2022-12-03T13:31:19.599Z,2.20
2022-12-03T13:33:49.078Z,2.20
2022-12-03T13:36:17.863Z,2.20
2022-12-03T13:38:46.155Z,2.20
2022-12-03T13:41:37.037Z,2.20
2022-12-03T13:44:14.073Z,2.20
2022-12-03T13:46:42.514Z,2.20
2022-12-03T13:49:20.331Z,2.20
2022-12-03T13:51:48.447Z,2.20
2022-12-03T13:54:20.445Z,2.20
2022-12-03T13:56:48.752Z,2.20
2022-12-03T13:59:20.379Z,2.10
2022-12-03T14:01:51.196Z,2.10
2022-12-03T14:04:20.630Z,2.10
2022-12-03T14:06:48.599Z,2.10
2022-12-03T14:09:16.608Z,2.10
2022-12-03T14:12:02.196Z,2.10
2022-12-03T14:14:30.199Z,2.10
2022-12-03T14:17:00.919Z,2.10
2022-12-03T14:19:30.398Z,2.10
2022-12-03T14:21:58.423Z,2.10
2022-12-03T14:24:26.397Z,2.10
2022-12-03T14:26:54.366Z,2.10
2022-12-03T14:29:29.931Z,2.10
2022-12-03T14:31:57.978Z,2.10
2022-12-03T14:34:25.960Z,2.10
2022-12-03T14:36:55.404Z,2.10
2022-12-03T14:39:23.424Z,2.10
2022-12-03T14:42:08.829Z,2.10
2022-12-03T14:44:36.863Z,2.10
2022-12-03T14:47:05.078Z,2.10
2022-12-03T14:49:33.544Z,2.10
2022-12-03T14:52:02.843Z,2.10
2022-12-03T14:54:33.733Z,2.10
2022-12-03T14:57:04.756Z,2.10
2022-12-03T14:59:32.871Z,2.10
2022-12-03T15:02:01.132Z,2.10
2022-12-03T15:04:31.936Z,2.10
2022-12-03T15:06:59.918Z,2.10
2022-12-03T15:09:30.729Z,2.10
2022-12-03T15:11:59.901Z,2.10
2022-12-03T15:14:27.880Z,2.00
2022-12-03T15:16:56.019Z,2.10
2022-12-03T15:19:25.352Z,2.10
2022-12-03T15:21:53.392Z,2.10
2022-12-03T15:24:25.334Z,2.10
2022-12-03T15:26:57.371Z,2.00
2022-12-03T15:29:25.360Z,2.00
2022-12-03T15:31:53.445Z,2.00
2022-12-03T15:34:23.416Z,2.00
2022-12-03T15:36:52.957Z,2.00
2022-12-03T15:39:20.909Z,2.00
2022-12-03T15:41:48.894Z,2.00
2022-12-03T15:44:18.257Z,2.00
2022-12-03T15:46:46.262Z,2.00
2022-12-03T15:49:14.299Z,2.00
2022-12-03T15:51:42.467Z,1.90
2022-12-03T15:54:13.590Z,1.90
2022-12-03T15:56:41.512Z,1.90
2022-12-03T15:59:12.024Z,1.90
2022-12-03T16:01:41.400Z,1.90
2022-12-03T16:04:09.311Z,1.90
2022-12-03T16:06:38.519Z,1.90
2022-12-03T16:09:29.397Z,1.90
2022-12-03T16:11:57.446Z,1.90
2022-12-03T16:14:46.010Z,1.80
2022-12-03T16:17:15.501Z,1.80
2022-12-03T16:19:43.841Z,1.80
2022-12-03T16:22:11.865Z,1.80
2022-12-03T16:24:39.817Z,1.80
2022-12-03T16:27:08.100Z,1.80
2022-12-03T16:29:36.071Z,1.80
2022-12-03T16:32:04.162Z,1.80
2022-12-03T16:34:34.747Z,1.80
2022-12-03T16:37:04.721Z,1.80
2022-12-03T16:39:32.735Z,1.80
2022-12-03T16:42:00.812Z,1.80
2022-12-03T16:44:33.359Z,1.80
2022-12-03T16:47:10.398Z,1.80
2022-12-03T16:49:39.683Z,1.80
2022-12-03T16:52:10.473Z,1.80
2022-12-03T16:54:38.472Z,1.80
2022-12-03T16:57:30.274Z,1.80
2022-12-03T17:00:04.027Z,1.80
2022-12-03T17:02:32.436Z,1.80
2022-12-03T17:05:01.837Z,1.80
2022-12-03T17:07:29.847Z,1.80
2022-12-03T17:09:58.028Z,1.80
2022-12-03T17:12:37.448Z,1.80
2022-12-03T17:15:16.939Z,1.80
2022-12-03T17:17:45.121Z,1.80
2022-12-03T17:20:14.835Z,1.80
2022-12-03T17:22:42.987Z,1.80
2022-12-03T17:25:11.315Z,1.70
2022-12-03T17:27:44.867Z,1.70
2022-12-03T17:30:14.062Z,1.70
2022-12-03T17:32:42.173Z,1.70
2022-12-03T17:35:11.010Z,1.70
2022-12-03T17:37:40.331Z,1.70
2022-12-03T17:40:09.455Z,1.60
2022-12-03T17:42:37.581Z,1.50
2022-12-03T17:45:05.963Z,1.80
2022-12-03T17:47:33.938Z,1.50
2022-12-03T17:50:01.894Z,1.50
2022-12-03T17:52:30.549Z,1.50
2022-12-03T17:55:11.871Z,1.50
2022-12-03T17:57:42.522Z,1.50
2022-12-03T18:00:11.016Z,1.50
2022-12-03T18:02:39.047Z,1.50
2022-12-03T18:05:07.292Z,1.50
2022-12-03T18:07:35.429Z,1.50
2022-12-03T18:10:05.115Z,1.50
2022-12-03T18:12:33.091Z,1.50
2022-12-03T18:15:03.845Z,1.50
2022-12-03T18:17:34.441Z,1.50
2022-12-03T18:20:04.138Z,1.50
2022-12-03T18:22:32.330Z,1.40
2022-12-03T18:25:00.493Z,1.40
2022-12-03T18:27:29.955Z,1.40
2022-12-03T18:29:58.124Z,1.40
2022-12-03T18:32:29.221Z,1.40
2022-12-03T18:34:57.938Z,1.40
2022-12-03T18:37:27.139Z,1.40
2022-12-03T18:39:55.569Z,1.30
2022-12-03T18:42:27.058Z,1.30
2022-12-03T18:44:57.192Z,1.40
2022-12-03T18:47:29.392Z,1.30
2022-12-03T18:49:58.042Z,1.30
2022-12-03T18:52:26.221Z,1.30
2022-12-03T18:54:55.281Z,1.30
2022-12-03T18:57:26.250Z,1.30
2022-12-03T18:59:54.672Z,1.30
2022-12-03T19:02:54.282Z,1.30
2022-12-03T19:05:12.479Z,1.20
2022-12-03T19:07:40.620Z,1.20
2022-12-03T19:10:09.424Z,1.20
2022-12-03T19:12:37.474Z,1.20
2022-12-03T19:15:06.195Z,1.20
2022-12-03T19:17:35.563Z,1.20
2022-12-03T19:20:05.307Z,1.20
2022-12-03T19:22:33.342Z,1.10
2022-12-03T19:25:06.387Z,1.20
2022-12-03T19:27:42.159Z,1.10
2022-12-03T19:30:11.614Z,1.10
2022-12-03T19:32:41.015Z,1.10
2022-12-03T19:35:11.302Z,1.20
2022-12-03T19:37:39.561Z,1.20
2022-12-03T19:40:10.180Z,1.10
2022-12-03T19:42:38.210Z,1.20
2022-12-03T19:45:06.790Z,1.20
2022-12-03T19:47:35.094Z,1.20
2022-12-03T19:50:04.661Z,1.20
2022-12-03T19:52:35.292Z,1.20
2022-12-03T19:55:03.581Z,1.20
2022-12-03T19:57:31.561Z,1.20
2022-12-03T19:59:59.848Z,1.30
2022-12-03T20:02:27.952Z,1.20
2022-12-03T20:04:56.350Z,1.20
2022-12-03T20:07:25.991Z,1.20
2022-12-03T20:09:54.387Z,1.20
2022-12-03T20:12:22.550Z,1.20
2022-12-03T20:14:51.654Z,1.20
2022-12-03T20:17:19.627Z,1.20
2022-12-03T20:19:47.973Z,1.20
2022-12-03T20:22:15.993Z,1.20
2022-12-03T20:24:45.520Z,1.20
2022-12-03T20:27:22.660Z,1.20
2022-12-03T20:29:51.264Z,1.20
2022-12-03T20:32:19.472Z,1.20
2022-12-03T20:34:48.584Z,1.20
2022-12-03T20:37:16.607Z,1.20
2022-12-03T20:39:45.992Z,1.20
2022-12-03T20:42:13.990Z,1.30
2022-12-03T20:44:42.007Z,1.20
2022-12-03T20:47:10.142Z,1.20
2022-12-03T20:49:42.978Z,1.20
2022-12-03T20:52:14.015Z,1.20
2022-12-03T20:54:42.035Z,1.20
2022-12-03T20:57:11.760Z,1.20
2022-12-03T20:59:39.743Z,1.20
2022-12-03T21:02:07.856Z,1.20
2022-12-03T21:04:36.008Z,1.20
2022-12-03T21:07:04.047Z,1.20
2022-12-03T21:09:32.104Z,1.20
2022-12-03T21:12:00.099Z,1.20
2022-12-03T21:14:29.483Z,1.20
2022-12-03T21:17:08.333Z,1.20
2022-12-03T21:19:37.125Z,1.20
2022-12-03T21:22:05.673Z,1.20
2022-12-03T21:24:33.700Z,1.20
2022-12-03T21:27:01.703Z,1.20
2022-12-03T21:29:31.250Z,1.20
2022-12-03T21:31:59.392Z,1.20
2022-12-03T21:34:32.674Z,1.20
2022-12-03T21:37:03.803Z,1.20
2022-12-03T21:39:34.868Z,1.20
2022-12-03T21:42:22.185Z,1.20
2022-12-03T21:45:01.286Z,1.20
2022-12-03T21:47:35.096Z,1.10
2022-12-03T21:50:08.082Z,1.10
2022-12-03T21:52:36.619Z,1.10
2022-12-03T21:55:04.758Z,1.10
2022-12-03T21:57:35.516Z,1.10
2022-12-03T22:00:05.196Z,1.10
2022-12-03T22:02:33.257Z,1.10
2022-12-03T22:05:01.324Z,1.10
2022-12-03T22:07:29.378Z,1.10
2022-12-03T22:09:59.286Z,1.10
2022-12-03T22:12:27.275Z,1.00
2022-12-03T22:14:57.155Z,1.00
2022-12-03T22:17:27.000Z,1.00
2022-12-03T22:19:55.062Z,1.00
2022-12-03T22:22:23.189Z,1.00
2022-12-03T22:24:51.409Z,0.90
2022-12-03T22:27:19.451Z,1.00
2022-12-03T22:29:51.284Z,0.90
2022-12-03T22:32:19.292Z,0.90
2022-12-03T22:34:48.631Z,0.90
2022-12-03T22:37:21.385Z,0.90
2022-12-03T22:39:49.392Z,0.90
2022-12-03T22:42:20.307Z,0.90
2022-12-03T22:44:48.426Z,0.80
2022-12-03T22:47:16.484Z,0.80
2022-12-03T22:49:44.547Z,0.80
2022-12-03T22:52:14.132Z,0.80
2022-12-03T22:54:45.131Z,1.30
2022-12-03T22:57:13.280Z,0.80
2022-12-03T22:59:41.313Z,0.80
2022-12-03T23:02:09.299Z,0.80
2022-12-03T23:04:37.347Z,0.70
2022-12-03T23:07:06.872Z,0.70
2022-12-03T23:09:36.313Z,0.70
2022-12-03T23:12:04.395Z,0.70
2022-12-03T23:14:32.400Z,0.70
2022-12-03T23:17:00.366Z,0.70
2022-12-03T23:19:28.453Z,0.70
2022-12-03T23:21:58.785Z,1.00
2022-12-03T23:24:27.229Z,1.20
2022-12-03T23:26:56.647Z,0.60
2022-12-03T23:29:24.608Z,0.70
2022-12-03T23:31:52.667Z,0.70
2022-12-03T23:34:22.186Z,0.60
2022-12-03T23:36:50.166Z,0.60
2022-12-03T23:39:18.162Z,0.60
2022-12-03T23:41:46.123Z,0.60
2022-12-03T23:44:15.489Z,0.60
2022-12-03T23:46:43.793Z,0.60
2022-12-03T23:49:11.866Z,0.60
2022-12-03T23:51:39.827Z,0.60
2022-12-03T23:54:07.906Z,0.70
2022-12-03T23:56:35.874Z,0.50
2022-12-03T23:59:03.921Z,0.50
